sim
Sign-in with your pilot id or email,
or register
Callsign
Passwort

Schedule Details

Flight Number: DLH2717 (1)
Departure: Dusseldorf International Airport (EDDL) at 08:10
Arrival: Munich Airport (EDDM) at 09:20
Route: Lufthansa Passenger Schedule. Enter filed route here before submitting Pirep.

Weather Information
Getting current METAR information for EDDL 191120Z 09007KT 060V140 CAVOK 24/04 Q1018 NOSIG
Getting current METAR information for EDDM 191120Z 08004KT 030V120 CAVOK 19/11 Q1019 NOSIG

Schedule Frequency

Route Map